sensor_id;sensor_type;location;lat;lon;timestamp;temperature;humidity
54680;DHT22;40578;53.178;5.846;2023-02-28T00:01:19;3.60;99.90
54680;DHT22;40578;53.178;5.846;2023-02-28T00:03:45;3.60;99.90
54680;DHT22;40578;53.178;5.846;2023-02-28T00:06:10;3.60;99.90
54680;DHT22;40578;53.178;5.846;2023-02-28T00:08:37;3.60;99.90
54680;DHT22;40578;53.178;5.846;2023-02-28T00:11:04;3.60;99.90
54680;DHT22;40578;53.178;5.846;2023-02-28T00:13:31;3.60;99.90
54680;DHT22;40578;53.178;5.846;2023-02-28T00:16:05;3.50;99.90
54680;DHT22;40578;53.178;5.846;2023-02-28T00:18:31;3.50;99.90
54680;DHT22;40578;53.178;5.846;2023-02-28T00:20:57;3.40;99.90
54680;DHT22;40578;53.178;5.846;2023-02-28T00:23:23;3.40;99.90
54680;DHT22;40578;53.178;5.846;2023-02-28T00:25:50;3.30;99.90
54680;DHT22;40578;53.178;5.846;2023-02-28T00:28:15;3.40;99.90
54680;DHT22;40578;53.178;5.846;2023-02-28T00:30:41;3.40;99.90
54680;DHT22;40578;53.178;5.846;2023-02-28T00:33:07;3.40;99.90
54680;DHT22;40578;53.178;5.846;2023-02-28T00:35:32;3.40;99.90
54680;DHT22;40578;53.178;5.846;2023-02-28T00:37:58;3.40;99.90
54680;DHT22;40578;53.178;5.846;2023-02-28T00:40:24;3.50;99.90
54680;DHT22;40578;53.178;5.846;2023-02-28T00:42:49;3.50;99.90
54680;DHT22;40578;53.178;5.846;2023-02-28T00:45:15;3.60;99.90
54680;DHT22;40578;53.178;5.846;2023-02-28T00:47:41;3.60;99.90
54680;DHT22;40578;53.178;5.846;2023-02-28T00:50:07;3.70;99.90
54680;DHT22;40578;53.178;5.846;2023-02-28T00:52:33;3.70;99.90
54680;DHT22;40578;53.178;5.846;2023-02-28T00:54:58;3.70;99.90
54680;DHT22;40578;53.178;5.846;2023-02-28T00:57:24;3.60;99.90
54680;DHT22;40578;53.178;5.846;2023-02-28T00:59:49;3.70;99.90
54680;DHT22;40578;53.178;5.846;2023-02-28T01:02:15;3.70;99.90
54680;DHT22;40578;53.178;5.846;2023-02-28T01:04:41;3.70;99.90
54680;DHT22;40578;53.178;5.846;2023-02-28T01:07:06;3.70;99.90
54680;DHT22;40578;53.178;5.846;2023-02-28T01:09:32;3.70;99.90
54680;DHT22;40578;53.178;5.846;2023-02-28T01:11:57;4.10;99.90
54680;DHT22;40578;53.178;5.846;2023-02-28T01:14:23;3.80;99.90
54680;DHT22;40578;53.178;5.846;2023-02-28T01:16:49;3.80;99.90
54680;DHT22;40578;53.178;5.846;2023-02-28T01:19:15;3.90;99.90
54680;DHT22;40578;53.178;5.846;2023-02-28T01:21:41;5.20;99.90
54680;DHT22;40578;53.178;5.846;2023-02-28T01:24:07;3.80;99.90
54680;DHT22;40578;53.178;5.846;2023-02-28T01:26:32;3.90;99.90
54680;DHT22;40578;53.178;5.846;2023-02-28T01:28:58;3.80;99.90
54680;DHT22;40578;53.178;5.846;2023-02-28T01:31:24;3.90;99.90
54680;DHT22;40578;53.178;5.846;2023-02-28T01:33:50;3.80;99.90
54680;DHT22;40578;53.178;5.846;2023-02-28T01:36:22;3.80;99.90
54680;DHT22;40578;53.178;5.846;2023-02-28T01:38:48;3.80;99.90
54680;DHT22;40578;53.178;5.846;2023-02-28T01:41:22;3.70;99.90
54680;DHT22;40578;53.178;5.846;2023-02-28T01:46:15;3.70;99.90
54680;DHT22;40578;53.178;5.846;2023-02-28T01:48:48;3.60;99.90
54680;DHT22;40578;53.178;5.846;2023-02-28T01:51:46;3.60;99.90
54680;DHT22;40578;53.178;5.846;2023-02-28T01:54:36;3.60;99.90
54680;DHT22;40578;53.178;5.846;2023-02-28T01:57:07;3.60;99.90
54680;DHT22;40578;53.178;5.846;2023-02-28T01:59:46;3.60;99.90
54680;DHT22;40578;53.178;5.846;2023-02-28T02:02:19;3.70;99.90
54680;DHT22;40578;53.178;5.846;2023-02-28T02:05:03;3.70;99.90
54680;DHT22;40578;53.178;5.846;2023-02-28T02:07:38;3.80;99.90
54680;DHT22;40578;53.178;5.846;2023-02-28T02:16:20;3.80;99.90
54680;DHT22;40578;53.178;5.846;2023-02-28T02:40:19;4.00;99.90
54680;DHT22;40578;53.178;5.846;2023-02-28T02:42:53;4.00;99.90
54680;DHT22;40578;53.178;5.846;2023-02-28T02:48:03;4.00;99.90
54680;DHT22;40578;53.178;5.846;2023-02-28T02:50:34;4.00;99.90
54680;DHT22;40578;53.178;5.846;2023-02-28T02:53:03;3.90;99.90
54680;DHT22;40578;53.178;5.846;2023-02-28T02:55:34;4.10;99.90
54680;DHT22;40578;53.178;5.846;2023-02-28T02:58:05;4.10;99.90
54680;DHT22;40578;53.178;5.846;2023-02-28T03:00:43;4.00;99.90
54680;DHT22;40578;53.178;5.846;2023-02-28T03:03:12;5.80;99.90
54680;DHT22;40578;53.178;5.846;2023-02-28T03:05:46;4.10;99.90
54680;DHT22;40578;53.178;5.846;2023-02-28T03:08:11;4.00;99.90
54680;DHT22;40578;53.178;5.846;2023-02-28T03:10:42;4.10;99.90
54680;DHT22;40578;53.178;5.846;2023-02-28T03:13:22;4.00;99.90
54680;DHT22;40578;53.178;5.846;2023-02-28T03:21:49;4.20;99.90
54680;DHT22;40578;53.178;5.846;2023-02-28T03:24:28;4.20;99.90
54680;DHT22;40578;53.178;5.846;2023-02-28T03:27:03;4.30;99.90
54680;DHT22;40578;53.178;5.846;2023-02-28T03:35:00;3.40;99.90
54680;DHT22;40578;53.178;5.846;2023-02-28T03:37:31;4.40;99.90
54680;DHT22;40578;53.178;5.846;2023-02-28T03:40:11;4.40;99.90
54680;DHT22;40578;53.178;5.846;2023-02-28T03:42:41;4.40;99.90
54680;DHT22;40578;53.178;5.846;2023-02-28T03:45:21;4.90;99.90
54680;DHT22;40578;53.178;5.846;2023-02-28T03:48:02;4.40;99.90
54680;DHT22;40578;53.178;5.846;2023-02-28T03:50:44;4.40;99.90
54680;DHT22;40578;53.178;5.846;2023-02-28T03:53:19;4.40;99.90
54680;DHT22;40578;53.178;5.846;2023-02-28T03:56:07;4.40;99.90
54680;DHT22;40578;53.178;5.846;2023-02-28T04:01:41;4.40;99.90
54680;DHT22;40578;53.178;5.846;2023-02-28T04:04:08;4.40;99.90
54680;DHT22;40578;53.178;5.846;2023-02-28T04:06:35;5.10;99.90
54680;DHT22;40578;53.178;5.846;2023-02-28T04:09:03;4.30;99.90
54680;DHT22;40578;53.178;5.846;2023-02-28T04:11:36;4.40;99.90
54680;DHT22;40578;53.178;5.846;2023-02-28T04:14:03;4.40;99.90
54680;DHT22;40578;53.178;5.846;2023-02-28T04:16:30;4.40;99.90
54680;DHT22;40578;53.178;5.846;2023-02-28T04:18:56;5.80;99.90
54680;DHT22;40578;53.178;5.846;2023-02-28T04:21:29;4.40;99.90
54680;DHT22;40578;53.178;5.846;2023-02-28T04:23:55;5.30;99.90
54680;DHT22;40578;53.178;5.846;2023-02-28T04:26:21;4.50;99.90
54680;DHT22;40578;53.178;5.846;2023-02-28T04:28:46;4.50;99.90
54680;DHT22;40578;53.178;5.846;2023-02-28T04:31:12;4.60;99.90
54680;DHT22;40578;53.178;5.846;2023-02-28T04:33:38;4.60;99.90
54680;DHT22;40578;53.178;5.846;2023-02-28T04:36:06;4.60;99.90
54680;DHT22;40578;53.178;5.846;2023-02-28T04:38:34;4.60;99.90
54680;DHT22;40578;53.178;5.846;2023-02-28T04:41:00;4.60;99.90
54680;DHT22;40578;53.178;5.846;2023-02-28T04:43:27;4.50;99.90
54680;DHT22;40578;53.178;5.846;2023-02-28T04:45:53;4.60;99.90
54680;DHT22;40578;53.178;5.846;2023-02-28T04:48:27;4.50;99.90
54680;DHT22;40578;53.178;5.846;2023-02-28T04:50:53;6.30;99.90
54680;DHT22;40578;53.178;5.846;2023-02-28T04:53:19;4.70;99.90
54680;DHT22;40578;53.178;5.846;2023-02-28T04:55:45;4.70;99.90
54680;DHT22;40578;53.178;5.846;2023-02-28T04:58:12;4.70;99.90
54680;DHT22;40578;53.178;5.846;2023-02-28T05:00:37;4.90;99.90
54680;DHT22;40578;53.178;5.846;2023-02-28T05:03:03;4.60;99.90
54680;DHT22;40578;53.178;5.846;2023-02-28T05:05:28;5.00;99.90
54680;DHT22;40578;53.178;5.846;2023-02-28T05:07:54;4.70;99.90
54680;DHT22;40578;53.178;5.846;2023-02-28T05:10:21;4.90;99.90
54680;DHT22;40578;53.178;5.846;2023-02-28T05:12:47;4.80;99.90
54680;DHT22;40578;53.178;5.846;2023-02-28T05:15:14;4.70;99.90
54680;DHT22;40578;53.178;5.846;2023-02-28T05:17:40;4.70;99.90
54680;DHT22;40578;53.178;5.846;2023-02-28T05:20:07;4.80;99.90
54680;DHT22;40578;53.178;5.846;2023-02-28T05:22:39;4.80;99.90
54680;DHT22;40578;53.178;5.846;2023-02-28T05:25:05;4.60;99.90
54680;DHT22;40578;53.178;5.846;2023-02-28T05:27:31;4.80;99.90
54680;DHT22;40578;53.178;5.846;2023-02-28T05:29:57;4.80;99.90
54680;DHT22;40578;53.178;5.846;2023-02-28T05:32:23;4.80;99.90
54680;DHT22;40578;53.178;5.846;2023-02-28T05:34:48;4.70;99.90
54680;DHT22;40578;53.178;5.846;2023-02-28T05:37:14;4.80;99.90
54680;DHT22;40578;53.178;5.846;2023-02-28T05:39:41;4.70;99.90
54680;DHT22;40578;53.178;5.846;2023-02-28T05:42:07;4.80;99.90
54680;DHT22;40578;53.178;5.846;2023-02-28T05:44:33;4.80;99.90
54680;DHT22;40578;53.178;5.846;2023-02-28T05:46:59;4.70;99.90
54680;DHT22;40578;53.178;5.846;2023-02-28T05:49:24;4.70;99.90
54680;DHT22;40578;53.178;5.846;2023-02-28T05:51:50;4.70;99.90
54680;DHT22;40578;53.178;5.846;2023-02-28T05:54:15;4.70;99.90
54680;DHT22;40578;53.178;5.846;2023-02-28T05:56:41;4.80;99.90
54680;DHT22;40578;53.178;5.846;2023-02-28T05:59:10;4.60;99.90
54680;DHT22;40578;53.178;5.846;2023-02-28T06:01:41;4.40;99.90
54680;DHT22;40578;53.178;5.846;2023-02-28T06:04:09;4.30;99.90
54680;DHT22;40578;53.178;5.846;2023-02-28T06:06:36;4.20;99.90
54680;DHT22;40578;53.178;5.846;2023-02-28T06:09:04;4.00;99.90
54680;DHT22;40578;53.178;5.846;2023-02-28T06:11:30;4.10;99.90
54680;DHT22;40578;53.178;5.846;2023-02-28T06:13:57;4.00;99.90
54680;DHT22;40578;53.178;5.846;2023-02-28T06:16:25;3.90;99.90
54680;DHT22;40578;53.178;5.846;2023-02-28T06:18:52;3.80;99.90
54680;DHT22;40578;53.178;5.846;2023-02-28T06:21:21;3.60;99.90
54680;DHT22;40578;53.178;5.846;2023-02-28T06:23:47;3.60;99.90
54680;DHT22;40578;53.178;5.846;2023-02-28T06:26:13;3.40;99.90
54680;DHT22;40578;53.178;5.846;2023-02-28T06:28:39;3.20;99.90
54680;DHT22;40578;53.178;5.846;2023-02-28T06:31:13;3.30;99.90
54680;DHT22;40578;53.178;5.846;2023-02-28T06:33:40;3.10;99.90
54680;DHT22;40578;53.178;5.846;2023-02-28T06:36:06;3.10;99.90
54680;DHT22;40578;53.178;5.846;2023-02-28T06:38:33;3.20;99.90
54680;DHT22;40578;53.178;5.846;2023-02-28T06:41:00;3.10;99.90
54680;DHT22;40578;53.178;5.846;2023-02-28T06:43:28;3.60;99.90
54680;DHT22;40578;53.178;5.846;2023-02-28T06:45:55;3.10;99.90
54680;DHT22;40578;53.178;5.846;2023-02-28T06:48:21;3.00;99.90
54680;DHT22;40578;53.178;5.846;2023-02-28T06:50:47;3.00;99.90
54680;DHT22;40578;53.178;5.846;2023-02-28T06:53:13;3.00;99.90
54680;DHT22;40578;53.178;5.846;2023-02-28T06:55:40;3.00;99.90
54680;DHT22;40578;53.178;5.846;2023-02-28T06:58:07;3.00;99.90
54680;DHT22;40578;53.178;5.846;2023-02-28T07:00:46;2.90;99.90
54680;DHT22;40578;53.178;5.846;2023-02-28T07:03:15;2.90;99.90
54680;DHT22;40578;53.178;5.846;2023-02-28T07:05:40;2.90;99.90
54680;DHT22;40578;53.178;5.846;2023-02-28T07:08:06;2.80;99.90
54680;DHT22;40578;53.178;5.846;2023-02-28T07:10:33;2.70;99.90
54680;DHT22;40578;53.178;5.846;2023-02-28T07:13:11;4.10;99.90
54680;DHT22;40578;53.178;5.846;2023-02-28T07:15:37;2.80;99.90
54680;DHT22;40578;53.178;5.846;2023-02-28T07:18:03;2.70;99.90
54680;DHT22;40578;53.178;5.846;2023-02-28T07:20:29;4.00;99.90
54680;DHT22;40578;53.178;5.846;2023-02-28T07:22:55;2.70;99.90
54680;DHT22;40578;53.178;5.846;2023-02-28T07:25:25;2.70;99.90
54680;DHT22;40578;53.178;5.846;2023-02-28T07:27:52;2.60;99.90
54680;DHT22;40578;53.178;5.846;2023-02-28T07:30:18;2.70;99.90
54680;DHT22;40578;53.178;5.846;2023-02-28T07:32:44;2.50;99.90
54680;DHT22;40578;53.178;5.846;2023-02-28T07:35:10;2.60;99.90
54680;DHT22;40578;53.178;5.846;2023-02-28T07:37:38;2.50;99.90
54680;DHT22;40578;53.178;5.846;2023-02-28T07:40:05;4.40;99.90
54680;DHT22;40578;53.178;5.846;2023-02-28T07:42:32;2.60;99.90
54680;DHT22;40578;53.178;5.846;2023-02-28T07:44:58;2.80;99.90
54680;DHT22;40578;53.178;5.846;2023-02-28T07:47:24;2.40;99.90
54680;DHT22;40578;53.178;5.846;2023-02-28T07:49:50;2.40;99.90
54680;DHT22;40578;53.178;5.846;2023-02-28T07:52:15;2.50;99.90
54680;DHT22;40578;53.178;5.846;2023-02-28T07:54:41;2.50;99.90
54680;DHT22;40578;53.178;5.846;2023-02-28T07:57:07;2.40;99.90
54680;DHT22;40578;53.178;5.846;2023-02-28T07:59:32;2.40;99.90
54680;DHT22;40578;53.178;5.846;2023-02-28T08:01:58;2.50;99.90
54680;DHT22;40578;53.178;5.846;2023-02-28T08:04:46;2.40;99.90
54680;DHT22;40578;53.178;5.846;2023-02-28T08:07:13;2.40;99.90
54680;DHT22;40578;53.178;5.846;2023-02-28T08:09:40;2.50;99.90
54680;DHT22;40578;53.178;5.846;2023-02-28T08:12:07;2.40;99.90
54680;DHT22;40578;53.178;5.846;2023-02-28T08:14:33;2.60;99.90
54680;DHT22;40578;53.178;5.846;2023-02-28T08:17:13;2.50;99.90
54680;DHT22;40578;53.178;5.846;2023-02-28T08:19:41;2.60;99.90
54680;DHT22;40578;53.178;5.846;2023-02-28T08:22:06;2.50;99.90
54680;DHT22;40578;53.178;5.846;2023-02-28T08:24:45;3.30;99.90
54680;DHT22;40578;53.178;5.846;2023-02-28T08:27:15;2.50;99.90
54680;DHT22;40578;53.178;5.846;2023-02-28T08:29:41;3.50;99.90
54680;DHT22;40578;53.178;5.846;2023-02-28T08:32:07;2.70;99.90
54680;DHT22;40578;53.178;5.846;2023-02-28T08:34:33;2.70;99.90
54680;DHT22;40578;53.178;5.846;2023-02-28T08:36:58;2.60;99.90
54680;DHT22;40578;53.178;5.846;2023-02-28T08:39:24;2.60;99.90
54680;DHT22;40578;53.178;5.846;2023-02-28T08:41:50;2.60;99.90
54680;DHT22;40578;53.178;5.846;2023-02-28T08:44:15;2.70;99.90
54680;DHT22;40578;53.178;5.846;2023-02-28T08:46:41;2.70;99.90
54680;DHT22;40578;53.178;5.846;2023-02-28T08:49:06;2.70;99.90
54680;DHT22;40578;53.178;5.846;2023-02-28T08:51:32;2.70;99.90
54680;DHT22;40578;53.178;5.846;2023-02-28T08:54:00;2.80;99.90
54680;DHT22;40578;53.178;5.846;2023-02-28T08:56:27;3.90;99.90
54680;DHT22;40578;53.178;5.846;2023-02-28T08:58:55;2.90;99.90
54680;DHT22;40578;53.178;5.846;2023-02-28T09:01:23;2.90;99.90
54680;DHT22;40578;53.178;5.846;2023-02-28T09:03:51;2.90;99.90
54680;DHT22;40578;53.178;5.846;2023-02-28T09:06:18;3.30;99.90
54680;DHT22;40578;53.178;5.846;2023-02-28T09:08:44;2.90;99.90
54680;DHT22;40578;53.178;5.846;2023-02-28T09:11:10;3.00;99.90
54680;DHT22;40578;53.178;5.846;2023-02-28T09:13:37;3.00;99.90
54680;DHT22;40578;53.178;5.846;2023-02-28T09:16:04;3.00;99.90
54680;DHT22;40578;53.178;5.846;2023-02-28T09:18:30;2.90;99.90
54680;DHT22;40578;53.178;5.846;2023-02-28T09:20:57;3.00;99.90
54680;DHT22;40578;53.178;5.846;2023-02-28T09:23:23;3.00;99.90
54680;DHT22;40578;53.178;5.846;2023-02-28T09:25:52;3.00;99.90
54680;DHT22;40578;53.178;5.846;2023-02-28T09:28:19;3.00;99.90
54680;DHT22;40578;53.178;5.846;2023-02-28T09:30:46;3.20;99.90
54680;DHT22;40578;53.178;5.846;2023-02-28T09:33:13;4.20;99.90
54680;DHT22;40578;53.178;5.846;2023-02-28T09:35:39;3.30;99.90
54680;DHT22;40578;53.178;5.846;2023-02-28T09:38:05;3.40;99.90
54680;DHT22;40578;53.178;5.846;2023-02-28T09:40:37;3.40;99.90
54680;DHT22;40578;53.178;5.846;2023-02-28T09:43:05;3.40;99.90
54680;DHT22;40578;53.178;5.846;2023-02-28T09:45:42;3.50;99.90
54680;DHT22;40578;53.178;5.846;2023-02-28T09:48:21;3.60;99.90
54680;DHT22;40578;53.178;5.846;2023-02-28T09:50:52;3.60;99.90
54680;DHT22;40578;53.178;5.846;2023-02-28T09:53:36;3.50;99.90
54680;DHT22;40578;53.178;5.846;2023-02-28T09:56:11;3.60;99.90
54680;DHT22;40578;53.178;5.846;2023-02-28T09:58:52;3.60;99.90
54680;DHT22;40578;53.178;5.846;2023-02-28T10:07:02;3.80;99.90
54680;DHT22;40578;53.178;5.846;2023-02-28T10:09:33;3.80;99.90
54680;DHT22;40578;53.178;5.846;2023-02-28T10:12:04;3.90;99.90
54680;DHT22;40578;53.178;5.846;2023-02-28T10:14:32;3.90;99.90
54680;DHT22;40578;53.178;5.846;2023-02-28T10:17:06;4.90;99.90
54680;DHT22;40578;53.178;5.846;2023-02-28T10:20:02;4.00;99.90
54680;DHT22;40578;53.178;5.846;2023-02-28T10:22:53;4.00;99.90
54680;DHT22;40578;53.178;5.846;2023-02-28T10:25:29;4.70;99.90
54680;DHT22;40578;53.178;5.846;2023-02-28T10:30:33;4.30;99.90
54680;DHT22;40578;53.178;5.846;2023-02-28T10:33:00;4.60;99.90
54680;DHT22;40578;53.178;5.846;2023-02-28T10:35:26;5.30;99.90
54680;DHT22;40578;53.178;5.846;2023-02-28T10:38:00;4.60;99.90
54680;DHT22;40578;53.178;5.846;2023-02-28T10:40:34;4.60;99.90
54680;DHT22;40578;53.178;5.846;2023-02-28T10:43:03;4.70;99.90
54680;DHT22;40578;53.178;5.846;2023-02-28T10:45:31;4.80;99.90
54680;DHT22;40578;53.178;5.846;2023-02-28T10:55:57;4.90;99.90
54680;DHT22;40578;53.178;5.846;2023-02-28T10:58:25;5.00;99.90
54680;DHT22;40578;53.178;5.846;2023-02-28T11:00:52;6.40;99.90
54680;DHT22;40578;53.178;5.846;2023-02-28T11:03:25;5.20;99.90
54680;DHT22;40578;53.178;5.846;2023-02-28T11:05:51;5.30;99.90
54680;DHT22;40578;53.178;5.846;2023-02-28T11:08:18;5.40;99.90
54680;DHT22;40578;53.178;5.846;2023-02-28T11:10:54;5.50;99.90
54680;DHT22;40578;53.178;5.846;2023-02-28T11:13:35;5.60;99.90
54680;DHT22;40578;53.178;5.846;2023-02-28T11:16:06;5.60;99.90
54680;DHT22;40578;53.178;5.846;2023-02-28T11:18:53;5.50;99.90
54680;DHT22;40578;53.178;5.846;2023-02-28T11:21:39;5.50;99.90
54680;DHT22;40578;53.178;5.846;2023-02-28T11:24:24;5.30;99.90
54680;DHT22;40578;53.178;5.846;2023-02-28T11:26:51;5.20;99.90
54680;DHT22;40578;53.178;5.846;2023-02-28T11:29:22;5.30;99.90
54680;DHT22;40578;53.178;5.846;2023-02-28T11:32:19;5.40;99.90
54680;DHT22;40578;53.178;5.846;2023-02-28T11:34:47;5.60;99.90
54680;DHT22;40578;53.178;5.846;2023-02-28T11:37:25;5.90;99.90
54680;DHT22;40578;53.178;5.846;2023-02-28T11:39:52;7.20;99.90
54680;DHT22;40578;53.178;5.846;2023-02-28T11:47:48;6.20;99.90
54680;DHT22;40578;53.178;5.846;2023-02-28T11:53:17;6.40;99.90
54680;DHT22;40578;53.178;5.846;2023-02-28T11:56:04;6.50;99.90
54680;DHT22;40578;53.178;5.846;2023-02-28T12:06:40;6.50;99.90
54680;DHT22;40578;53.178;5.846;2023-02-28T12:15:13;6.30;99.90
54680;DHT22;40578;53.178;5.846;2023-02-28T12:18:16;6.40;99.90
54680;DHT22;40578;53.178;5.846;2023-02-28T12:31:49;6.90;99.90
54680;DHT22;40578;53.178;5.846;2023-02-28T12:34:20;6.70;99.90
54680;DHT22;40578;53.178;5.846;2023-02-28T12:36:49;7.30;99.90
54680;DHT22;40578;53.178;5.846;2023-02-28T12:39:23;7.40;99.90
54680;DHT22;40578;53.178;5.846;2023-02-28T12:42:11;7.20;99.90
54680;DHT22;40578;53.178;5.846;2023-02-28T12:45:01;7.10;99.90
54680;DHT22;40578;53.178;5.846;2023-02-28T12:47:27;7.10;99.90
54680;DHT22;40578;53.178;5.846;2023-02-28T12:49:54;7.20;99.90
54680;DHT22;40578;53.178;5.846;2023-02-28T12:58:10;7.30;99.90
54680;DHT22;40578;53.178;5.846;2023-02-28T13:01:09;7.40;99.90
54680;DHT22;40578;53.178;5.846;2023-02-28T13:09:16;7.60;99.90
54680;DHT22;40578;53.178;5.846;2023-02-28T13:11:46;7.70;99.90
54680;DHT22;40578;53.178;5.846;2023-02-28T13:17:20;7.60;99.90
54680;DHT22;40578;53.178;5.846;2023-02-28T13:27:54;7.80;99.90
54680;DHT22;40578;53.178;5.846;2023-02-28T13:33:36;7.60;99.90
54680;DHT22;40578;53.178;5.846;2023-02-28T13:38:55;7.30;99.90
54680;DHT22;40578;53.178;5.846;2023-02-28T13:44:07;7.10;99.90
54680;DHT22;40578;53.178;5.846;2023-02-28T13:46:36;7.20;99.90
54680;DHT22;40578;53.178;5.846;2023-02-28T14:05:18;7.90;99.90
54680;DHT22;40578;53.178;5.846;2023-02-28T14:07:53;8.00;99.90
54680;DHT22;40578;53.178;5.846;2023-02-28T14:10:27;7.90;99.90
54680;DHT22;40578;53.178;5.846;2023-02-28T14:12:57;7.80;99.90
54680;DHT22;40578;53.178;5.846;2023-02-28T14:15:48;7.80;99.90
54680;DHT22;40578;53.178;5.846;2023-02-28T14:18:19;7.60;99.90
54680;DHT22;40578;53.178;5.846;2023-02-28T14:20:47;7.70;99.90
54680;DHT22;40578;53.178;5.846;2023-02-28T14:28:27;7.50;99.90
54680;DHT22;40578;53.178;5.846;2023-02-28T14:31:07;7.60;99.90
54680;DHT22;40578;53.178;5.846;2023-02-28T14:33:39;7.60;99.90
54680;DHT22;40578;53.178;5.846;2023-02-28T14:36:36;7.70;99.90
54680;DHT22;40578;53.178;5.846;2023-02-28T14:39:10;7.70;99.90
54680;DHT22;40578;53.178;5.846;2023-02-28T14:41:39;7.80;99.90
54680;DHT22;40578;53.178;5.846;2023-02-28T14:44:24;7.80;99.90
54680;DHT22;40578;53.178;5.846;2023-02-28T14:46:58;7.90;99.90
54680;DHT22;40578;53.178;5.846;2023-02-28T14:49:36;7.90;99.90
54680;DHT22;40578;53.178;5.846;2023-02-28T14:54:39;8.00;99.90
54680;DHT22;40578;53.178;5.846;2023-02-28T14:57:05;8.00;99.90
54680;DHT22;40578;53.178;5.846;2023-02-28T14:59:35;7.90;99.90
54680;DHT22;40578;53.178;5.846;2023-02-28T15:02:19;8.00;99.90
54680;DHT22;40578;53.178;5.846;2023-02-28T15:04:53;8.10;99.90
54680;DHT22;40578;53.178;5.846;2023-02-28T15:07:19;8.20;99.90
54680;DHT22;40578;53.178;5.846;2023-02-28T15:09:47;8.20;99.90
54680;DHT22;40578;53.178;5.846;2023-02-28T15:12:14;8.10;99.90
54680;DHT22;40578;53.178;5.846;2023-02-28T15:14:43;8.00;99.90
54680;DHT22;40578;53.178;5.846;2023-02-28T15:17:18;8.00;99.90
54680;DHT22;40578;53.178;5.846;2023-02-28T15:19:48;7.80;99.90
54680;DHT22;40578;53.178;5.846;2023-02-28T15:22:19;7.80;99.90
54680;DHT22;40578;53.178;5.846;2023-02-28T15:24:51;7.80;99.90
54680;DHT22;40578;53.178;5.846;2023-02-28T15:27:23;7.80;99.90
54680;DHT22;40578;53.178;5.846;2023-02-28T15:30:37;7.70;99.90
54680;DHT22;40578;53.178;5.846;2023-02-28T15:32:44;7.50;99.90
54680;DHT22;40578;53.178;5.846;2023-02-28T15:38:02;7.50;99.90
54680;DHT22;40578;53.178;5.846;2023-02-28T15:40:37;8.20;99.90
54680;DHT22;40578;53.178;5.846;2023-02-28T15:43:11;7.30;99.90
54680;DHT22;40578;53.178;5.846;2023-02-28T15:45:47;7.20;99.90
54680;DHT22;40578;53.178;5.846;2023-02-28T15:48:28;7.20;99.90
54680;DHT22;40578;53.178;5.846;2023-02-28T15:51:05;7.30;99.90
54680;DHT22;40578;53.178;5.846;2023-02-28T15:53:35;7.30;99.90
54680;DHT22;40578;53.178;5.846;2023-02-28T15:56:05;7.20;99.90
54680;DHT22;40578;53.178;5.846;2023-02-28T15:58:32;7.30;99.90
54680;DHT22;40578;53.178;5.846;2023-02-28T16:01:04;7.30;99.90
54680;DHT22;40578;53.178;5.846;2023-02-28T16:03:45;7.20;99.90
54680;DHT22;40578;53.178;5.846;2023-02-28T16:09:09;7.10;99.90
54680;DHT22;40578;53.178;5.846;2023-02-28T16:11:39;7.10;99.90
54680;DHT22;40578;53.178;5.846;2023-02-28T16:14:08;7.10;99.90
54680;DHT22;40578;53.178;5.846;2023-02-28T16:16:42;7.00;99.90
54680;DHT22;40578;53.178;5.846;2023-02-28T16:19:09;7.50;99.90
54680;DHT22;40578;53.178;5.846;2023-02-28T16:21:34;6.80;99.90
54680;DHT22;40578;53.178;5.846;2023-02-28T16:24:00;6.80;99.90
54680;DHT22;40578;53.178;5.846;2023-02-28T16:26:26;6.70;99.90
54680;DHT22;40578;53.178;5.846;2023-02-28T16:28:54;6.60;99.90
54680;DHT22;40578;53.178;5.846;2023-02-28T16:31:20;6.50;99.90
54680;DHT22;40578;53.178;5.846;2023-02-28T16:33:46;6.40;99.90
54680;DHT22;40578;53.178;5.846;2023-02-28T16:36:21;6.40;99.90
54680;DHT22;40578;53.178;5.846;2023-02-28T16:38:47;6.40;99.90
54680;DHT22;40578;53.178;5.846;2023-02-28T16:41:18;6.30;99.90
54680;DHT22;40578;53.178;5.846;2023-02-28T16:43:46;6.30;99.90
54680;DHT22;40578;53.178;5.846;2023-02-28T16:46:13;6.30;99.90
54680;DHT22;40578;53.178;5.846;2023-02-28T16:48:39;6.20;99.90
54680;DHT22;40578;53.178;5.846;2023-02-28T16:51:08;6.20;99.90
54680;DHT22;40578;53.178;5.846;2023-02-28T16:53:33;6.10;99.90
54680;DHT22;40578;53.178;5.846;2023-02-28T16:56:00;6.10;99.90
54680;DHT22;40578;53.178;5.846;2023-02-28T16:58:27;6.00;99.90
54680;DHT22;40578;53.178;5.846;2023-02-28T17:00:53;6.00;99.90
54680;DHT22;40578;53.178;5.846;2023-02-28T17:03:27;5.90;99.90
54680;DHT22;40578;53.178;5.846;2023-02-28T17:05:52;5.90;99.90
54680;DHT22;40578;53.178;5.846;2023-02-28T17:08:18;6.20;99.90
54680;DHT22;40578;53.178;5.846;2023-02-28T17:10:44;5.80;99.90
54680;DHT22;40578;53.178;5.846;2023-02-28T17:13:09;5.70;99.90
54680;DHT22;40578;53.178;5.846;2023-02-28T17:15:35;5.60;99.90
54680;DHT22;40578;53.178;5.846;2023-02-28T17:18:01;5.50;99.90
54680;DHT22;40578;53.178;5.846;2023-02-28T17:20:27;5.40;99.90
54680;DHT22;40578;53.178;5.846;2023-02-28T17:22:54;5.40;99.90
54680;DHT22;40578;53.178;5.846;2023-02-28T17:25:20;5.30;99.90
54680;DHT22;40578;53.178;5.846;2023-02-28T17:27:47;5.80;99.90
54680;DHT22;40578;53.178;5.846;2023-02-28T17:30:18;5.20;99.90
54680;DHT22;40578;53.178;5.846;2023-02-28T17:32:44;5.10;99.90
54680;DHT22;40578;53.178;5.846;2023-02-28T17:35:10;5.10;99.90
54680;DHT22;40578;53.178;5.846;2023-02-28T17:37:36;5.00;99.90
54680;DHT22;40578;53.178;5.846;2023-02-28T17:40:02;5.60;99.90
54680;DHT22;40578;53.178;5.846;2023-02-28T17:42:28;4.90;99.90
54680;DHT22;40578;53.178;5.846;2023-02-28T17:44:53;4.80;99.90
54680;DHT22;40578;53.178;5.846;2023-02-28T17:47:19;4.80;99.90
54680;DHT22;40578;53.178;5.846;2023-02-28T17:49:44;4.80;99.90
54680;DHT22;40578;53.178;5.846;2023-02-28T17:52:10;4.70;99.90
54680;DHT22;40578;53.178;5.846;2023-02-28T17:54:36;4.70;99.90
54680;DHT22;40578;53.178;5.846;2023-02-28T17:57:01;4.60;99.90
54680;DHT22;40578;53.178;5.846;2023-02-28T17:59:27;4.50;99.90
54680;DHT22;40578;53.178;5.846;2023-02-28T18:02:02;4.50;99.90
54680;DHT22;40578;53.178;5.846;2023-02-28T18:04:29;4.50;99.90
54680;DHT22;40578;53.178;5.846;2023-02-28T18:06:55;4.40;99.90
54680;DHT22;40578;53.178;5.846;2023-02-28T18:09:26;5.20;99.90
54680;DHT22;40578;53.178;5.846;2023-02-28T18:11:53;4.30;99.90
54680;DHT22;40578;53.178;5.846;2023-02-28T18:14:20;4.20;99.90
54680;DHT22;40578;53.178;5.846;2023-02-28T18:16:48;4.20;99.90
54680;DHT22;40578;53.178;5.846;2023-02-28T18:19:14;4.20;99.90
54680;DHT22;40578;53.178;5.846;2023-02-28T18:21:46;4.10;99.90
54680;DHT22;40578;53.178;5.846;2023-02-28T18:24:12;5.50;99.90
54680;DHT22;40578;53.178;5.846;2023-02-28T18:26:38;4.10;99.90
54680;DHT22;40578;53.178;5.846;2023-02-28T18:29:05;4.00;99.90
54680;DHT22;40578;53.178;5.846;2023-02-28T18:31:31;4.00;99.90
54680;DHT22;40578;53.178;5.846;2023-02-28T18:33:58;4.00;99.90
54680;DHT22;40578;53.178;5.846;2023-02-28T18:36:24;4.00;99.90
54680;DHT22;40578;53.178;5.846;2023-02-28T18:38:50;3.90;99.90